Disclaimer

Please do not use the information listed here in-flight or in-navigation, as they are not provided to us by the airports but are provided by volunteers, so they might be outdated.

Search


Regions


Airport information page

Radio informations:
Tower (TWR) - 118.8 MHz
Automatic Terminal Information Service (ATIS) - 129.575 MHz
Approach (APP) - 119.1 MHz
SHANWICK OCEANIC - 120.35 MHz

Airport informations:
Latitude: 55° 52' 19.00" N
Longitude: 004° 25' 59.00" W
Elevation: 26 feet - 8 meters
Operating hours: 24 hour operations
Operating agency: Civil government, landing fees and diplomatic clearance may be required
Timezone: UTC 0(+1DT) - Last Sunday in March to last Sunday in October
Fuel: Jet A1, without icing nhibitor.

100/130 MIL Spec, low lead, aviation gasoline (BLUE)

Runway information:
05/23 - 8720 x 151 feet< - >2658 x 46 meters
09/27 - 3622 x 151 feet< - >1104 x 46 meters

Recent METARs:
EGPF 191950Z AUTO 07012KT 9000 -RA SCT016 BKN022 BKN028 06/04 Q1028
EGPF 192020Z AUTO 07011KT 9999 -RA SCT015 BKN023 BKN029 06/04 Q1028
EGPF 192050Z AUTO 06013KT 9999 FEW031/// BKN042/// //////CB 06/04 Q1028

Airport on the map: